sensor_id;sensor_type;location;lat;lon;timestamp;pressure;altitude;pressure_sealevel;temperature
66180;BMP280;52986;44.028;20.466;2023-02-15T00:01:06;99743.81;;;4.32
66180;BMP280;52986;44.028;20.466;2023-02-15T00:03:31;99737.41;;;4.33
66180;BMP280;52986;44.028;20.466;2023-02-15T00:05:57;99730.13;;;4.30
66180;BMP280;52986;44.028;20.466;2023-02-15T00:08:22;99730.81;;;4.27
66180;BMP280;52986;44.028;20.466;2023-02-15T00:10:48;99734.59;;;4.26
66180;BMP280;52986;44.028;20.466;2023-02-15T00:13:13;99734.59;;;4.26
66180;BMP280;52986;44.028;20.466;2023-02-15T00:15:38;99728.34;;;4.19
66180;BMP280;52986;44.028;20.466;2023-02-15T00:18:04;99728.78;;;4.21
66180;BMP280;52986;44.028;20.466;2023-02-15T00:20:29;99737.03;;;4.16
66180;BMP280;52986;44.028;20.466;2023-02-15T00:22:55;99733.59;;;4.15
66180;BMP280;52986;44.028;20.466;2023-02-15T00:25:20;99736.25;;;4.15
66180;BMP280;52986;44.028;20.466;2023-02-15T00:27:45;99740.69;;;4.11
66180;BMP280;52986;44.028;20.466;2023-02-15T00:30:11;99741.81;;;4.10
66180;BMP280;52986;44.028;20.466;2023-02-15T00:32:36;99740.28;;;4.09
66180;BMP280;52986;44.028;20.466;2023-02-15T00:35:02;99740.19;;;4.05
66180;BMP280;52986;44.028;20.466;2023-02-15T00:37:27;99739.09;;;4.06
66180;BMP280;52986;44.028;20.466;2023-02-15T00:39:53;99744.72;;;4.05
66180;BMP280;52986;44.028;20.466;2023-02-15T00:42:18;99741.31;;;4.04
66180;BMP280;52986;44.028;20.466;2023-02-15T00:44:43;99740.53;;;4.04
66180;BMP280;52986;44.028;20.466;2023-02-15T00:47:09;99741.56;;;3.99
66180;BMP280;52986;44.028;20.466;2023-02-15T00:49:34;99753.28;;;3.98
66180;BMP280;52986;44.028;20.466;2023-02-15T00:52:00;99746.81;;;3.96
66180;BMP280;52986;44.028;20.466;2023-02-15T00:54:25;99734.69;;;3.95
66180;BMP280;52986;44.028;20.466;2023-02-15T00:56:50;99726.97;;;3.90
66180;BMP280;52986;44.028;20.466;2023-02-15T00:59:16;99732.94;;;3.86
66180;BMP280;52986;44.028;20.466;2023-02-15T01:01:41;99728.50;;;3.91
66180;BMP280;52986;44.028;20.466;2023-02-15T01:04:07;99728.50;;;3.91
66180;BMP280;52986;44.028;20.466;2023-02-15T01:06:32;99725.44;;;3.89
66180;BMP280;52986;44.028;20.466;2023-02-15T01:08:57;99722.34;;;3.86
66180;BMP280;52986;44.028;20.466;2023-02-15T01:11:23;99723.88;;;3.88
66180;BMP280;52986;44.028;20.466;2023-02-15T01:13:53;99719.69;;;3.86
66180;BMP280;52986;44.028;20.466;2023-02-15T01:16:21;99721.22;;;3.88
66180;BMP280;52986;44.028;20.466;2023-02-15T01:18:47;99724.47;;;3.81
66180;BMP280;52986;44.028;20.466;2023-02-15T01:21:14;99716.63;;;3.84
66180;BMP280;52986;44.028;20.466;2023-02-15T01:23:41;99715.16;;;3.87
66180;BMP280;52986;44.028;20.466;2023-02-15T01:26:07;99707.13;;;3.83
66180;BMP280;52986;44.028;20.466;2023-02-15T01:28:33;99710.81;;;3.79
66180;BMP280;52986;44.028;20.466;2023-02-15T01:30:58;99712.28;;;3.76
66180;BMP280;52986;44.028;20.466;2023-02-15T01:33:24;99707.50;;;3.66
66180;BMP280;52986;44.028;20.466;2023-02-15T01:35:56;99705.38;;;3.72
66180;BMP280;52986;44.028;20.466;2023-02-15T01:38:22;99709.03;;;3.67
66180;BMP280;52986;44.028;20.466;2023-02-15T01:40:51;99715.53;;;3.70
66180;BMP280;52986;44.028;20.466;2023-02-15T01:43:16;99706.81;;;3.69
66180;BMP280;52986;44.028;20.466;2023-02-15T01:45:42;99711.44;;;3.72
66180;BMP280;52986;44.028;20.466;2023-02-15T01:48:33;99705.03;;;3.73
66180;BMP280;52986;44.028;20.466;2023-02-15T01:51:00;99708.28;;;3.67
66180;BMP280;52986;44.028;20.466;2023-02-15T01:53:30;99693.91;;;3.68
66180;BMP280;52986;44.028;20.466;2023-02-15T01:55:59;99689.38;;;3.68
66180;BMP280;52986;44.028;20.466;2023-02-15T01:58:27;99687.06;;;3.67
66180;BMP280;52986;44.028;20.466;2023-02-15T02:00:55;99701.50;;;3.69
66180;BMP280;52986;44.028;20.466;2023-02-15T02:05:57;99688.59;;;3.68
66180;BMP280;52986;44.028;20.466;2023-02-15T02:08:23;99701.00;;;3.64
66180;BMP280;52986;44.028;20.466;2023-02-15T02:10:49;99692.97;;;3.60
66180;BMP280;52986;44.028;20.466;2023-02-15T02:13:14;99698.09;;;3.69
66180;BMP280;52986;44.028;20.466;2023-02-15T02:15:54;99701.59;;;3.73
66180;BMP280;52986;44.028;20.466;2023-02-15T02:18:58;99697.31;;;3.68
66180;BMP280;52986;44.028;20.466;2023-02-15T02:29:38;99696.75;;;3.59
66180;BMP280;52986;44.028;20.466;2023-02-15T02:32:32;99702.69;;;3.56
66180;BMP280;52986;44.028;20.466;2023-02-15T02:37:39;99693.91;;;3.68
66180;BMP280;52986;44.028;20.466;2023-02-15T02:43:29;99699.97;;;3.68
66180;BMP280;52986;44.028;20.466;2023-02-15T02:46:20;99692.47;;;3.70
66180;BMP280;52986;44.028;20.466;2023-02-15T02:48:46;99697.78;;;3.70
66180;BMP280;52986;44.028;20.466;2023-02-15T02:51:14;99689.38;;;3.68
66180;BMP280;52986;44.028;20.466;2023-02-15T02:53:45;99695.38;;;3.65
66180;BMP280;52986;44.028;20.466;2023-02-15T02:56:23;99696.97;;;3.70
66180;BMP280;52986;44.028;20.466;2023-02-15T02:59:38;99698.44;;;3.67
66180;BMP280;52986;44.028;20.466;2023-02-15T03:02:11;99704.44;;;3.64
66180;BMP280;52986;44.028;20.466;2023-02-15T03:04:41;99698.69;;;3.62
66180;BMP280;52986;44.028;20.466;2023-02-15T03:07:11;99699.81;;;3.61
66180;BMP280;52986;44.028;20.466;2023-02-15T03:09:42;99698.69;;;3.62
66180;BMP280;52986;44.028;20.466;2023-02-15T03:12:22;99700.50;;;3.58
66180;BMP280;52986;44.028;20.466;2023-02-15T03:14:52;99702.03;;;3.59
66180;BMP280;52986;44.028;20.466;2023-02-15T03:17:20;99701.69;;;3.45
66180;BMP280;52986;44.028;20.466;2023-02-15T03:19:49;99706.97;;;3.45
66180;BMP280;52986;44.028;20.466;2023-02-15T03:25:21;99700.31;;;3.51
66180;BMP280;52986;44.028;20.466;2023-02-15T03:27:51;99696.13;;;3.50
66180;BMP280;52986;44.028;20.466;2023-02-15T03:30:20;99701.84;;;3.52
66180;BMP280;52986;44.028;20.466;2023-02-15T03:32:47;99692.66;;;3.46
66180;BMP280;52986;44.028;20.466;2023-02-15T03:35:13;99698.38;;;3.48
66180;BMP280;52986;44.028;20.466;2023-02-15T03:37:47;99697.94;;;3.46
66180;BMP280;52986;44.028;20.466;2023-02-15T03:40:19;99692.72;;;3.49
66180;BMP280;52986;44.028;20.466;2023-02-15T03:45:46;99701.78;;;3.48
66180;BMP280;52986;44.028;20.466;2023-02-15T03:48:25;99694.19;;;3.47
66180;BMP280;52986;44.028;20.466;2023-02-15T03:50:55;99701.69;;;3.45
66180;BMP280;52986;44.028;20.466;2023-02-15T03:53:42;99692.44;;;3.39
66180;BMP280;52986;44.028;20.466;2023-02-15T03:56:08;99697.31;;;3.37
66180;BMP280;52986;44.028;20.466;2023-02-15T03:58:33;99701.75;;;3.33
66180;BMP280;52986;44.028;20.466;2023-02-15T04:04:13;99701.44;;;3.34
66180;BMP280;52986;44.028;20.466;2023-02-15T04:06:40;99699.09;;;3.33
66180;BMP280;52986;44.028;20.466;2023-02-15T04:09:06;99694.56;;;3.33
66180;BMP280;52986;44.028;20.466;2023-02-15T04:11:49;99695.63;;;3.28
66180;BMP280;52986;44.028;20.466;2023-02-15T04:14:15;99699.09;;;3.33
66180;BMP280;52986;44.028;20.466;2023-02-15T04:16:59;99702.22;;;3.35
66180;BMP280;52986;44.028;20.466;2023-02-15T04:19:24;99693.16;;;3.36
66180;BMP280;52986;44.028;20.466;2023-02-15T04:22:08;99698.69;;;3.30
66180;BMP280;52986;44.028;20.466;2023-02-15T04:24:52;99705.97;;;3.34
66180;BMP280;52986;44.028;20.466;2023-02-15T04:27:36;99697.22;;;3.33
66180;BMP280;52986;44.028;20.466;2023-02-15T04:30:03;99707.91;;;3.37
66180;BMP280;52986;44.028;20.466;2023-02-15T04:32:28;99704.59;;;3.40
66180;BMP280;52986;44.028;20.466;2023-02-15T04:34:53;99708.44;;;3.42
66180;BMP280;52986;44.028;20.466;2023-02-15T04:37:19;99708.78;;;3.41
66180;BMP280;52986;44.028;20.466;2023-02-15T04:39:44;99709.22;;;3.43
66180;BMP280;52986;44.028;20.466;2023-02-15T04:42:10;99703.25;;;3.46
66180;BMP280;52986;44.028;20.466;2023-02-15T04:44:35;99709.38;;;3.50
66180;BMP280;52986;44.028;20.466;2023-02-15T04:47:00;99706.31;;;3.48
66180;BMP280;52986;44.028;20.466;2023-02-15T04:49:26;99700.16;;;3.44
66180;BMP280;52986;44.028;20.466;2023-02-15T04:51:51;99714.66;;;3.50
66180;BMP280;52986;44.028;20.466;2023-02-15T04:54:16;99706.97;;;3.45
66180;BMP280;52986;44.028;20.466;2023-02-15T04:56:42;99713.91;;;3.49
66180;BMP280;52986;44.028;20.466;2023-02-15T04:59:11;99709.22;;;3.43
66180;BMP280;52986;44.028;20.466;2023-02-15T05:01:36;99713.06;;;3.45
66180;BMP280;52986;44.028;20.466;2023-02-15T05:04:02;99716.03;;;3.44
66180;BMP280;52986;44.028;20.466;2023-02-15T05:06:28;99718.63;;;3.40
66180;BMP280;52986;44.028;20.466;2023-02-15T05:08:53;99717.16;;;3.43
66180;BMP280;52986;44.028;20.466;2023-02-15T05:11:18;99712.97;;;3.42
66180;BMP280;52986;44.028;20.466;2023-02-15T05:13:44;99722.81;;;3.41
66180;BMP280;52986;44.028;20.466;2023-02-15T05:16:09;99715.88;;;3.37
66180;BMP280;52986;44.028;20.466;2023-02-15T05:18:34;99721.59;;;3.39
66180;BMP280;52986;44.028;20.466;2023-02-15T05:21:00;99731.00;;;3.36
66180;BMP280;52986;44.028;20.466;2023-02-15T05:23:25;99727.22;;;3.37
66180;BMP280;52986;44.028;20.466;2023-02-15T05:25:51;99729.81;;;3.34
66180;BMP280;52986;44.028;20.466;2023-02-15T05:28:36;99731.00;;;3.36
66180;BMP280;52986;44.028;20.466;2023-02-15T05:31:10;99735.09;;;3.34
66180;BMP280;52986;44.028;20.466;2023-02-15T05:33:35;99733.13;;;3.30
66180;BMP280;52986;44.028;20.466;2023-02-15T05:36:02;99737.66;;;3.30
66180;BMP280;52986;44.028;20.466;2023-02-15T05:38:27;99743.03;;;3.34
66180;BMP280;52986;44.028;20.466;2023-02-15T05:40:53;99742.94;;;3.30
66180;BMP280;52986;44.028;20.466;2023-02-15T05:43:19;99744.81;;;3.29
66180;BMP280;52986;44.028;20.466;2023-02-15T05:45:52;99747.47;;;3.29
66180;BMP280;52986;44.028;20.466;2023-02-15T05:48:19;99746.53;;;3.38
66180;BMP280;52986;44.028;20.466;2023-02-15T05:50:45;99740.91;;;3.39
66180;BMP280;52986;44.028;20.466;2023-02-15T05:53:10;99750.72;;;3.39
66180;BMP280;52986;44.028;20.466;2023-02-15T05:55:40;99740.91;;;3.39
66180;BMP280;52986;44.028;20.466;2023-02-15T05:58:06;99747.41;;;3.42
66180;BMP280;52986;44.028;20.466;2023-02-15T06:00:31;99747.00;;;3.40
66180;BMP280;52986;44.028;20.466;2023-02-15T06:02:57;99750.06;;;3.42
66180;BMP280;52986;44.028;20.466;2023-02-15T06:05:22;99744.34;;;3.40
66180;BMP280;52986;44.028;20.466;2023-02-15T06:07:48;99747.00;;;3.40
66180;BMP280;52986;44.028;20.466;2023-02-15T06:10:13;99742.53;;;3.44
66180;BMP280;52986;44.028;20.466;2023-02-15T06:12:38;99743.41;;;3.48
66180;BMP280;52986;44.028;20.466;2023-02-15T06:15:04;99745.34;;;3.51
66180;BMP280;52986;44.028;20.466;2023-02-15T06:17:30;99754.69;;;3.61
66180;BMP280;52986;44.028;20.466;2023-02-15T06:19:55;99753.41;;;3.70
66180;BMP280;52986;44.028;20.466;2023-02-15T06:22:21;99752.78;;;3.77
66180;BMP280;52986;44.028;20.466;2023-02-15T06:24:47;99750.06;;;3.73
66180;BMP280;52986;44.028;20.466;2023-02-15T06:27:12;99747.00;;;3.71
66180;BMP280;52986;44.028;20.466;2023-02-15T06:29:38;99751.63;;;3.74
66180;BMP280;52986;44.028;20.466;2023-02-15T06:32:03;99749.44;;;3.80
66180;BMP280;52986;44.028;20.466;2023-02-15T06:34:29;99752.63;;;3.85
66180;BMP280;52986;44.028;20.466;2023-02-15T06:36:54;99762.97;;;3.91
66180;BMP280;52986;44.028;20.466;2023-02-15T06:39:20;99761.19;;;3.95
66180;BMP280;52986;44.028;20.466;2023-02-15T06:41:57;99749.81;;;3.94
66180;BMP280;52986;44.028;20.466;2023-02-15T06:44:23;99758.22;;;4.00
66180;BMP280;52986;44.028;20.466;2023-02-15T06:47:03;99751.66;;;4.09
66180;BMP280;52986;44.028;20.466;2023-02-15T06:49:28;99749.88;;;4.13
66180;BMP280;52986;44.028;20.466;2023-02-15T06:51:54;99747.50;;;4.28
66180;BMP280;52986;44.028;20.466;2023-02-15T06:54:19;99750.16;;;4.28
66180;BMP280;52986;44.028;20.466;2023-02-15T06:56:44;99743.25;;;4.42
66180;BMP280;52986;44.028;20.466;2023-02-15T06:59:10;99751.03;;;4.51
66180;BMP280;52986;44.028;20.466;2023-02-15T07:01:35;99753.31;;;4.53
66180;BMP280;52986;44.028;20.466;2023-02-15T07:04:02;99752.22;;;4.54
66180;BMP280;52986;44.028;20.466;2023-02-15T07:06:31;99752.06;;;4.66
66180;BMP280;52986;44.028;20.466;2023-02-15T07:08:57;99754.16;;;4.76
66180;BMP280;52986;44.028;20.466;2023-02-15T07:11:22;99758.22;;;4.89
66180;BMP280;52986;44.028;20.466;2023-02-15T07:14:06;99758.06;;;5.02
66180;BMP280;52986;44.028;20.466;2023-02-15T07:16:34;99761.84;;;5.00
66180;BMP280;52986;44.028;20.466;2023-02-15T07:19:03;99760.13;;;5.12
66180;BMP280;52986;44.028;20.466;2023-02-15T07:21:28;99762.44;;;5.13
66180;BMP280;52986;44.028;20.466;2023-02-15T07:23:56;99762.56;;;5.20
66180;BMP280;52986;44.028;20.466;2023-02-15T07:26:31;99767.13;;;5.20
66180;BMP280;52986;44.028;20.466;2023-02-15T07:29:03;99766.69;;;5.18
66180;BMP280;52986;44.028;20.466;2023-02-15T07:31:35;99765.72;;;5.26
66180;BMP280;52986;44.028;20.466;2023-02-15T07:34:01;99773.84;;;5.37
66180;BMP280;52986;44.028;20.466;2023-02-15T07:36:29;99768.53;;;5.37
66180;BMP280;52986;44.028;20.466;2023-02-15T07:38:54;99773.28;;;5.47
66180;BMP280;52986;44.028;20.466;2023-02-15T07:41:20;99773.50;;;5.61
66180;BMP280;52986;44.028;20.466;2023-02-15T07:43:45;99768.88;;;5.81
66180;BMP280;52986;44.028;20.466;2023-02-15T07:46:13;99768.56;;;5.86
66180;BMP280;52986;44.028;20.466;2023-02-15T07:48:43;99771.31;;;5.90
66180;BMP280;52986;44.028;20.466;2023-02-15T07:51:10;99769.69;;;6.11
66180;BMP280;52986;44.028;20.466;2023-02-15T07:53:37;99768.22;;;6.14
66180;BMP280;52986;44.028;20.466;2023-02-15T07:56:09;99765.63;;;6.21
66180;BMP280;52986;44.028;20.466;2023-02-15T07:58:35;99759.72;;;6.35
66180;BMP280;52986;44.028;20.466;2023-02-15T08:01:28;99758.41;;;6.52
66180;BMP280;52986;44.028;20.466;2023-02-15T08:03:54;99755.19;;;6.72
66180;BMP280;52986;44.028;20.466;2023-02-15T08:06:22;99758.75;;;6.80
66180;BMP280;52986;44.028;20.466;2023-02-15T08:08:47;99755.34;;;6.83
66180;BMP280;52986;44.028;20.466;2023-02-15T08:11:21;99750.94;;;7.01
66180;BMP280;52986;44.028;20.466;2023-02-15T08:21:48;99753.13;;;7.29
66180;BMP280;52986;44.028;20.466;2023-02-15T08:24:15;99750.38;;;7.70
66180;BMP280;52986;44.028;20.466;2023-02-15T08:26:42;99755.03;;;7.84
66180;BMP280;52986;44.028;20.466;2023-02-15T08:29:10;99753.19;;;7.95
66180;BMP280;52986;44.028;20.466;2023-02-15T08:31:36;99746.22;;;8.67
66180;BMP280;52986;44.028;20.466;2023-02-15T08:34:03;99744.75;;;9.05
66180;BMP280;52986;44.028;20.466;2023-02-15T08:36:30;99747.03;;;9.31
66180;BMP280;52986;44.028;20.466;2023-02-15T08:38:58;99756.50;;;9.86
66180;BMP280;52986;44.028;20.466;2023-02-15T08:41:29;99751.47;;;10.09
66180;BMP280;52986;44.028;20.466;2023-02-15T08:43:56;99750.00;;;9.94
66180;BMP280;52986;44.028;20.466;2023-02-15T08:46:24;99747.97;;;10.16
66180;BMP280;52986;44.028;20.466;2023-02-15T08:48:50;99752.84;;;10.42
66180;BMP280;52986;44.028;20.466;2023-02-15T08:51:24;99754.31;;;10.54
66180;BMP280;52986;44.028;20.466;2023-02-15T08:53:55;99746.38;;;10.32
66180;BMP280;52986;44.028;20.466;2023-02-15T08:56:44;99748.63;;;10.45
66180;BMP280;52986;44.028;20.466;2023-02-15T08:59:13;99754.31;;;11.06
66180;BMP280;52986;44.028;20.466;2023-02-15T09:01:39;99752.34;;;11.13
66180;BMP280;52986;44.028;20.466;2023-02-15T09:04:06;99747.75;;;11.14
66180;BMP280;52986;44.028;20.466;2023-02-15T09:06:36;99743.06;;;11.25
66180;BMP280;52986;44.028;20.466;2023-02-15T09:09:02;99749.75;;;11.44
66180;BMP280;52986;44.028;20.466;2023-02-15T09:11:30;99755.59;;;11.35
66180;BMP280;52986;44.028;20.466;2023-02-15T09:13:58;99750.78;;;11.91
66180;BMP280;52986;44.028;20.466;2023-02-15T09:16:26;99750.81;;;12.22
66180;BMP280;52986;44.028;20.466;2023-02-15T09:18:52;99759.38;;;12.09
66180;BMP280;52986;44.028;20.466;2023-02-15T09:21:20;99740.38;;;12.24
66180;BMP280;52986;44.028;20.466;2023-02-15T09:23:47;99745.47;;;12.18
66180;BMP280;52986;44.028;20.466;2023-02-15T09:26:16;99749.69;;;12.19
66180;BMP280;52986;44.028;20.466;2023-02-15T09:28:42;99743.88;;;11.60
66180;BMP280;52986;44.028;20.466;2023-02-15T09:31:15;99743.78;;;11.29
66180;BMP280;52986;44.028;20.466;2023-02-15T09:33:41;99742.06;;;11.05
66180;BMP280;52986;44.028;20.466;2023-02-15T09:36:28;99733.16;;;10.70
66180;BMP280;52986;44.028;20.466;2023-02-15T09:39:16;99734.75;;;10.57
66180;BMP280;52986;44.028;20.466;2023-02-15T09:48:23;99740.81;;;10.64
66180;BMP280;52986;44.028;20.466;2023-02-15T09:51:21;99729.09;;;10.44
66180;BMP280;52986;44.028;20.466;2023-02-15T09:54:09;99727.25;;;10.38
66180;BMP280;52986;44.028;20.466;2023-02-15T10:07:10;99721.88;;;10.89
66180;BMP280;52986;44.028;20.466;2023-02-15T10:12:39;99728.53;;;10.74
66180;BMP280;52986;44.028;20.466;2023-02-15T10:28:48;99738.31;;;19.89
66180;BMP280;52986;44.028;20.466;2023-02-15T10:34:28;99727.22;;;21.67
66180;BMP280;52986;44.028;20.466;2023-02-15T10:51:02;99730.66;;;23.00
66180;BMP280;52986;44.028;20.466;2023-02-15T10:54:04;99714.53;;;23.45
66180;BMP280;52986;44.028;20.466;2023-02-15T11:01:48;99706.69;;;24.62
66180;BMP280;52986;44.028;20.466;2023-02-15T11:04:30;99708.06;;;23.91
66180;BMP280;52986;44.028;20.466;2023-02-15T11:07:04;99698.34;;;25.46
66180;BMP280;52986;44.028;20.466;2023-02-15T11:09:41;99690.22;;;24.73
66180;BMP280;52986;44.028;20.466;2023-02-15T11:12:16;99693.47;;;22.57
66180;BMP280;52986;44.028;20.466;2023-02-15T11:17:22;99673.97;;;23.38
66180;BMP280;52986;44.028;20.466;2023-02-15T11:20:02;99684.25;;;24.30
66180;BMP280;52986;44.028;20.466;2023-02-15T11:22:32;99675.53;;;23.56
66180;BMP280;52986;44.028;20.466;2023-02-15T11:25:00;99683.09;;;22.61
66180;BMP280;52986;44.028;20.466;2023-02-15T11:27:30;99674.03;;;22.81
66180;BMP280;52986;44.028;20.466;2023-02-15T11:30:10;99668.31;;;24.62
66180;BMP280;52986;44.028;20.466;2023-02-15T11:32:41;99669.59;;;23.63
66180;BMP280;52986;44.028;20.466;2023-02-15T11:40:38;99664.38;;;23.65
66180;BMP280;52986;44.028;20.466;2023-02-15T11:45:55;99654.38;;;23.50
66180;BMP280;52986;44.028;20.466;2023-02-15T11:48:21;99648.44;;;22.78
66180;BMP280;52986;44.028;20.466;2023-02-15T11:50:47;99653.78;;;23.95
66180;BMP280;52986;44.028;20.466;2023-02-15T11:53:15;99651.88;;;22.73
66180;BMP280;52986;44.028;20.466;2023-02-15T11:55:43;99650.63;;;24.35
66180;BMP280;52986;44.028;20.466;2023-02-15T12:01:04;99632.28;;;25.79
66180;BMP280;52986;44.028;20.466;2023-02-15T12:03:51;99630.44;;;24.16
66180;BMP280;52986;44.028;20.466;2023-02-15T12:06:23;99628.88;;;23.28
66180;BMP280;52986;44.028;20.466;2023-02-15T12:11:36;99628.91;;;23.98
66180;BMP280;52986;44.028;20.466;2023-02-15T12:14:10;99624.63;;;24.97
66180;BMP280;52986;44.028;20.466;2023-02-15T12:19:18;99627.00;;;23.50
66180;BMP280;52986;44.028;20.466;2023-02-15T12:21:49;99628.53;;;23.57
66180;BMP280;52986;44.028;20.466;2023-02-15T12:24:22;99621.31;;;23.06
66180;BMP280;52986;44.028;20.466;2023-02-15T12:27:05;99621.06;;;23.63
66180;BMP280;52986;44.028;20.466;2023-02-15T12:29:40;99607.75;;;24.60
66180;BMP280;52986;44.028;20.466;2023-02-15T12:32:11;99600.78;;;24.42
66180;BMP280;52986;44.028;20.466;2023-02-15T12:34:41;99589.00;;;23.75
66180;BMP280;52986;44.028;20.466;2023-02-15T12:37:17;99597.28;;;23.27
66180;BMP280;52986;44.028;20.466;2023-02-15T12:40:38;99600.28;;;23.29
66180;BMP280;52986;44.028;20.466;2023-02-15T12:42:56;99588.91;;;23.36
66180;BMP280;52986;44.028;20.466;2023-02-15T12:45:24;99590.25;;;23.14
66180;BMP280;52986;44.028;20.466;2023-02-15T12:48:20;99588.97;;;23.04
66180;BMP280;52986;44.028;20.466;2023-02-15T12:50:50;99575.44;;;23.32
66180;BMP280;52986;44.028;20.466;2023-02-15T12:53:23;99566.22;;;22.19
66180;BMP280;52986;44.028;20.466;2023-02-15T12:56:00;99571.00;;;21.98
66180;BMP280;52986;44.028;20.466;2023-02-15T12:58:30;99540.88;;;20.27
66180;BMP280;52986;44.028;20.466;2023-02-15T13:03:33;99526.78;;;17.92
66180;BMP280;52986;44.028;20.466;2023-02-15T13:06:01;99524.03;;;16.44
66180;BMP280;52986;44.028;20.466;2023-02-15T13:13:28;99513.13;;;13.90
66180;BMP280;52986;44.028;20.466;2023-02-15T13:16:01;99507.50;;;14.01
66180;BMP280;52986;44.028;20.466;2023-02-15T13:18:34;99510.59;;;13.51
66180;BMP280;52986;44.028;20.466;2023-02-15T13:21:10;99506.44;;;12.94
66180;BMP280;52986;44.028;20.466;2023-02-15T13:23:37;99486.66;;;13.04
66180;BMP280;52986;44.028;20.466;2023-02-15T13:26:11;99490.25;;;13.13
66180;BMP280;52986;44.028;20.466;2023-02-15T13:28:44;99490.25;;;13.13
66180;BMP280;52986;44.028;20.466;2023-02-15T13:31:15;99490.09;;;13.04
66180;BMP280;52986;44.028;20.466;2023-02-15T13:33:46;99487.84;;;12.83
66180;BMP280;52986;44.028;20.466;2023-02-15T13:39:21;99482.19;;;12.58
66180;BMP280;52986;44.028;20.466;2023-02-15T13:50:20;99475.91;;;12.25
66180;BMP280;52986;44.028;20.466;2023-02-15T13:55:40;99471.22;;;12.05
66180;BMP280;52986;44.028;20.466;2023-02-15T14:03:46;99468.66;;;11.98
66180;BMP280;52986;44.028;20.466;2023-02-15T14:09:43;99473.63;;;11.76
66180;BMP280;52986;44.028;20.466;2023-02-15T14:12:34;99471.34;;;11.75
66180;BMP280;52986;44.028;20.466;2023-02-15T14:15:08;99469.19;;;11.66
66180;BMP280;52986;44.028;20.466;2023-02-15T14:22:54;99453.47;;;11.41
66180;BMP280;52986;44.028;20.466;2023-02-15T14:25:27;99450.88;;;11.34
66180;BMP280;52986;44.028;20.466;2023-02-15T14:30:25;99447.53;;;11.26
66180;BMP280;52986;44.028;20.466;2023-02-15T14:32:55;99456.78;;;11.22
66180;BMP280;52986;44.028;20.466;2023-02-15T14:35:28;99451.88;;;11.17
66180;BMP280;52986;44.028;20.466;2023-02-15T14:38:02;99455.44;;;11.07
66180;BMP280;52986;44.028;20.466;2023-02-15T14:46:30;99454.81;;;10.95
66180;BMP280;52986;44.028;20.466;2023-02-15T14:56:41;99438.72;;;10.65
66180;BMP280;52986;44.028;20.466;2023-02-15T14:59:20;99440.63;;;10.64
66180;BMP280;52986;44.028;20.466;2023-02-15T15:01:58;99439.13;;;10.63
66180;BMP280;52986;44.028;20.466;2023-02-15T15:07:51;99436.13;;;10.58
66180;BMP280;52986;44.028;20.466;2023-02-15T15:12:44;99432.78;;;10.47
66180;BMP280;52986;44.028;20.466;2023-02-15T15:15:32;99441.66;;;10.40
66180;BMP280;52986;44.028;20.466;2023-02-15T15:18:08;99442.16;;;10.31
66180;BMP280;52986;44.028;20.466;2023-02-15T15:25:51;99453.94;;;10.00
66180;BMP280;52986;44.028;20.466;2023-02-15T15:33:42;99452.59;;;9.74
66180;BMP280;52986;44.028;20.466;2023-02-15T15:39:27;99439.66;;;9.62
66180;BMP280;52986;44.028;20.466;2023-02-15T15:45:14;99445.53;;;9.39
66180;BMP280;52986;44.028;20.466;2023-02-15T15:47:54;99449.44;;;9.31
66180;BMP280;52986;44.028;20.466;2023-02-15T15:50:22;99446.78;;;9.24
66180;BMP280;52986;44.028;20.466;2023-02-15T15:52:50;99451.06;;;9.10
66180;BMP280;52986;44.028;20.466;2023-02-15T15:55:22;99442.31;;;8.96
66180;BMP280;52986;44.028;20.466;2023-02-15T15:57:52;99445.03;;;8.78
66180;BMP280;52986;44.028;20.466;2023-02-15T16:02:54;99452.38;;;8.52
66180;BMP280;52986;44.028;20.466;2023-02-15T16:05:21;99456.97;;;8.38
66180;BMP280;52986;44.028;20.466;2023-02-15T16:07:46;99456.22;;;8.23
66180;BMP280;52986;44.028;20.466;2023-02-15T16:10:29;99459.63;;;8.06
66180;BMP280;52986;44.028;20.466;2023-02-15T16:12:57;99468.44;;;7.96
66180;BMP280;52986;44.028;20.466;2023-02-15T16:15:45;99456.22;;;7.91
66180;BMP280;52986;44.028;20.466;2023-02-15T16:18:15;99456.56;;;7.75
66180;BMP280;52986;44.028;20.466;2023-02-15T16:20:51;99454.25;;;7.63
66180;BMP280;52986;44.028;20.466;2023-02-15T16:28:48;99474.00;;;7.30
66180;BMP280;52986;44.028;20.466;2023-02-15T16:31:15;99473.50;;;7.07
66180;BMP280;52986;44.028;20.466;2023-02-15T16:33:43;99469.28;;;6.98
66180;BMP280;52986;44.028;20.466;2023-02-15T16:36:21;99469.13;;;6.73
66180;BMP280;52986;44.028;20.466;2023-02-15T16:41:14;99477.31;;;6.47
66180;BMP280;52986;44.028;20.466;2023-02-15T16:43:44;99473.47;;;6.37
66180;BMP280;52986;44.028;20.466;2023-02-15T16:46:24;99485.59;;;6.31
66180;BMP280;52986;44.028;20.466;2023-02-15T16:48:52;99482.03;;;6.17
66180;BMP280;52986;44.028;20.466;2023-02-15T16:51:22;99486.84;;;6.00
66180;BMP280;52986;44.028;20.466;2023-02-15T16:53:48;99487.09;;;5.88
66180;BMP280;52986;44.028;20.466;2023-02-15T16:56:14;99486.66;;;5.82
66180;BMP280;52986;44.028;20.466;2023-02-15T16:58:43;99485.31;;;5.66
66180;BMP280;52986;44.028;20.466;2023-02-15T17:01:13;99489.50;;;5.67
66180;BMP280;52986;44.028;20.466;2023-02-15T17:03:40;99486.44;;;5.65
66180;BMP280;52986;44.028;20.466;2023-02-15T17:09:16;99480.34;;;5.31
66180;BMP280;52986;44.028;20.466;2023-02-15T17:11:48;99488.25;;;5.23
66180;BMP280;52986;44.028;20.466;2023-02-15T17:14:19;99483.59;;;5.17
66180;BMP280;52986;44.028;20.466;2023-02-15T17:16:52;99488.41;;;5.08
66180;BMP280;52986;44.028;20.466;2023-02-15T17:19:19;99487.16;;;5.02
66180;BMP280;52986;44.028;20.466;2023-02-15T17:22:03;99490.47;;;4.95
66180;BMP280;52986;44.028;20.466;2023-02-15T17:24:50;99493.13;;;4.91
66180;BMP280;52986;44.028;20.466;2023-02-15T17:27:30;99494.41;;;4.78
66180;BMP280;52986;44.028;20.466;2023-02-15T17:30:13;99497.25;;;4.66
66180;BMP280;52986;44.028;20.466;2023-02-15T17:33:02;99501.47;;;4.67
66180;BMP280;52986;44.028;20.466;2023-02-15T17:35:30;99497.06;;;4.52
66180;BMP280;52986;44.028;20.466;2023-02-15T17:38:02;99504.59;;;4.50
66180;BMP280;52986;44.028;20.466;2023-02-15T17:40:30;99497.63;;;4.41